sensor_id;sensor_type;location;lat;lon;timestamp;pressure;altitude;pressure_sealevel;temperature;humidity
15794;BME280;7999;51.208;4.244;2022-08-14T00:00:17;101076.16;;;23.66;38.72
15794;BME280;7999;51.208;4.244;2022-08-14T00:02:45;101079.38;;;23.72;38.85
15794;BME280;7999;51.208;4.244;2022-08-14T00:05:13;101076.88;;;23.69;39.02
15794;BME280;7999;51.208;4.244;2022-08-14T00:07:45;101064.84;;;23.62;39.24
15794;BME280;7999;51.208;4.244;2022-08-14T00:10:12;101069.22;;;23.63;39.28
15794;BME280;7999;51.208;4.244;2022-08-14T00:12:40;101059.88;;;23.56;39.12
15794;BME280;7999;51.208;4.244;2022-08-14T00:15:09;101058.25;;;23.52;39.31
15794;BME280;7999;51.208;4.244;2022-08-14T00:17:37;101065.59;;;23.47;39.66
15794;BME280;7999;51.208;4.244;2022-08-14T00:20:04;101051.38;;;23.48;39.74
15794;BME280;7999;51.208;4.244;2022-08-14T00:22:31;101050.38;;;23.51;39.36
15794;BME280;7999;51.208;4.244;2022-08-14T00:25:00;101050.84;;;23.41;39.79
15794;BME280;7999;51.208;4.244;2022-08-14T00:27:27;101044.69;;;23.41;40.19
15794;BME280;7999;51.208;4.244;2022-08-14T00:29:54;101040.91;;;23.28;40.13
15794;BME280;7999;51.208;4.244;2022-08-14T00:32:21;101049.31;;;23.19;40.46
15794;BME280;7999;51.208;4.244;2022-08-14T00:34:48;101041.84;;;23.27;40.22
15794;BME280;7999;51.208;4.244;2022-08-14T00:37:14;101041.59;;;23.14;40.98
15794;BME280;7999;51.208;4.244;2022-08-14T00:39:42;101037.16;;;23.15;40.76
15794;BME280;7999;51.208;4.244;2022-08-14T00:42:10;101039.03;;;23.12;40.58
15794;BME280;7999;51.208;4.244;2022-08-14T00:44:37;101048.69;;;23.13;41.03
15794;BME280;7999;51.208;4.244;2022-08-14T00:47:04;101044.78;;;23.03;40.97
15794;BME280;7999;51.208;4.244;2022-08-14T00:49:33;101044.13;;;22.98;41.17
15794;BME280;7999;51.208;4.244;2022-08-14T00:52:01;101039.13;;;22.92;41.42
15794;BME280;7999;51.208;4.244;2022-08-14T00:54:30;101034.22;;;22.85;41.43
15794;BME280;7999;51.208;4.244;2022-08-14T00:56:57;101027.31;;;22.80;41.45
15794;BME280;7999;51.208;4.244;2022-08-14T00:59:26;101029.88;;;22.44;42.38
15794;BME280;7999;51.208;4.244;2022-08-14T01:01:54;101031.88;;;22.39;42.74
15794;BME280;7999;51.208;4.244;2022-08-14T01:04:22;101023.88;;;22.41;43.01
15794;BME280;7999;51.208;4.244;2022-08-14T01:06:49;101026.59;;;22.39;42.80
15794;BME280;7999;51.208;4.244;2022-08-14T01:09:16;101031.75;;;22.42;42.81
15794;BME280;7999;51.208;4.244;2022-08-14T01:11:47;101024.88;;;22.38;42.94
15794;BME280;7999;51.208;4.244;2022-08-14T01:14:16;101025.03;;;22.35;43.00
15794;BME280;7999;51.208;4.244;2022-08-14T01:16:45;101018.00;;;22.34;42.92
15794;BME280;7999;51.208;4.244;2022-08-14T01:19:12;101012.84;;;22.31;43.11
15794;BME280;7999;51.208;4.244;2022-08-14T01:21:58;101010.19;;;22.31;43.24
15794;BME280;7999;51.208;4.244;2022-08-14T01:24:25;101008.13;;;22.38;43.23
15794;BME280;7999;51.208;4.244;2022-08-14T01:26:52;101006.09;;;22.43;42.61
15794;BME280;7999;51.208;4.244;2022-08-14T01:29:19;101007.13;;;22.40;43.14
15794;BME280;7999;51.208;4.244;2022-08-14T01:31:47;101001.91;;;22.20;43.81
15794;BME280;7999;51.208;4.244;2022-08-14T01:34:14;101002.56;;;22.25;43.54
15794;BME280;7999;51.208;4.244;2022-08-14T01:36:41;101002.09;;;22.15;44.01
15794;BME280;7999;51.208;4.244;2022-08-14T01:39:09;100992.00;;;22.05;44.32
15794;BME280;7999;51.208;4.244;2022-08-14T01:41:36;100987.88;;;21.98;44.69
15794;BME280;7999;51.208;4.244;2022-08-14T01:44:04;100986.50;;;22.09;43.97
15794;BME280;7999;51.208;4.244;2022-08-14T01:46:32;100985.63;;;22.09;43.94
15794;BME280;7999;51.208;4.244;2022-08-14T01:49:00;100985.09;;;22.01;44.36
15794;BME280;7999;51.208;4.244;2022-08-14T01:51:27;100981.44;;;22.03;44.15
15794;BME280;7999;51.208;4.244;2022-08-14T01:53:55;100980.88;;;21.97;44.58
15794;BME280;7999;51.208;4.244;2022-08-14T01:56:25;100982.88;;;21.92;44.80
15794;BME280;7999;51.208;4.244;2022-08-14T01:59:01;100967.97;;;21.89;44.92
15794;BME280;7999;51.208;4.244;2022-08-14T02:01:28;100975.13;;;21.87;44.94
15794;BME280;7999;51.208;4.244;2022-08-14T02:03:55;100974.69;;;21.77;45.35
15794;BME280;7999;51.208;4.244;2022-08-14T02:06:22;100974.53;;;21.80;45.23
15794;BME280;7999;51.208;4.244;2022-08-14T02:08:51;100976.69;;;21.72;45.53
15794;BME280;7999;51.208;4.244;2022-08-14T02:11:19;100973.53;;;21.64;45.72
15794;BME280;7999;51.208;4.244;2022-08-14T02:13:52;100965.75;;;21.59;46.12
15794;BME280;7999;51.208;4.244;2022-08-14T02:16:21;100967.63;;;21.57;45.98
15794;BME280;7999;51.208;4.244;2022-08-14T02:18:50;100970.75;;;21.47;46.09
15794;BME280;7999;51.208;4.244;2022-08-14T02:21:18;100970.59;;;21.29;46.74
15794;BME280;7999;51.208;4.244;2022-08-14T02:23:47;100963.38;;;21.33;46.55
15794;BME280;7999;51.208;4.244;2022-08-14T02:26:16;100971.88;;;21.19;47.06
15794;BME280;7999;51.208;4.244;2022-08-14T02:28:43;100955.94;;;21.21;46.85
15794;BME280;7999;51.208;4.244;2022-08-14T02:31:12;100955.59;;;21.08;47.42
15794;BME280;7999;51.208;4.244;2022-08-14T02:33:39;100961.22;;;21.01;47.56
15794;BME280;7999;51.208;4.244;2022-08-14T02:36:07;100953.47;;;20.96;47.70
15794;BME280;7999;51.208;4.244;2022-08-14T02:38:34;100949.31;;;20.90;48.16
15794;BME280;7999;51.208;4.244;2022-08-14T02:41:01;100943.88;;;20.93;48.00
15794;BME280;7999;51.208;4.244;2022-08-14T02:43:28;100951.03;;;20.91;48.01
15794;BME280;7999;51.208;4.244;2022-08-14T02:45:56;100951.88;;;20.92;48.33
15794;BME280;7999;51.208;4.244;2022-08-14T02:48:24;100943.03;;;20.93;48.37
15794;BME280;7999;51.208;4.244;2022-08-14T02:50:55;100950.03;;;20.94;48.02
15794;BME280;7999;51.208;4.244;2022-08-14T02:53:22;100951.22;;;20.87;48.54
15794;BME280;7999;51.208;4.244;2022-08-14T02:55:49;100945.31;;;20.80;48.58
15794;BME280;7999;51.208;4.244;2022-08-14T02:58:16;100943.66;;;20.78;48.81
15794;BME280;7999;51.208;4.244;2022-08-14T03:00:45;100934.78;;;20.79;48.65
15794;BME280;7999;51.208;4.244;2022-08-14T03:03:14;100941.13;;;20.75;48.83
15794;BME280;7999;51.208;4.244;2022-08-14T03:05:43;100936.28;;;20.86;48.26
15794;BME280;7999;51.208;4.244;2022-08-14T03:08:11;100932.59;;;20.90;48.05
15794;BME280;7999;51.208;4.244;2022-08-14T03:10:38;100932.59;;;20.90;48.33
15794;BME280;7999;51.208;4.244;2022-08-14T03:13:05;100937.03;;;20.89;48.44
15794;BME280;7999;51.208;4.244;2022-08-14T03:15:33;100934.72;;;20.80;48.84
15794;BME280;7999;51.208;4.244;2022-08-14T03:18:03;100930.03;;;20.66;49.12
15794;BME280;7999;51.208;4.244;2022-08-14T03:20:30;100932.34;;;20.52;49.68
15794;BME280;7999;51.208;4.244;2022-08-14T03:22:58;100929.03;;;20.47;50.01
15794;BME280;7999;51.208;4.244;2022-08-14T03:25:26;100934.50;;;20.19;50.67
15794;BME280;7999;51.208;4.244;2022-08-14T03:27:58;100931.13;;;20.16;51.10
15794;BME280;7999;51.208;4.244;2022-08-14T03:30:25;100936.34;;;20.17;50.90
15794;BME280;7999;51.208;4.244;2022-08-14T03:32:54;100932.72;;;20.20;51.01
15794;BME280;7999;51.208;4.244;2022-08-14T03:35:21;100936.50;;;20.36;50.42
15794;BME280;7999;51.208;4.244;2022-08-14T03:37:49;100929.63;;;20.32;50.43
15794;BME280;7999;51.208;4.244;2022-08-14T03:40:18;100937.69;;;20.05;50.96
15794;BME280;7999;51.208;4.244;2022-08-14T03:42:45;100938.78;;;20.00;51.21
15794;BME280;7999;51.208;4.244;2022-08-14T03:45:12;100948.22;;;19.82;51.82
15794;BME280;7999;51.208;4.244;2022-08-14T03:47:39;100937.19;;;19.71;52.13
15794;BME280;7999;51.208;4.244;2022-08-14T03:50:06;100938.72;;;19.78;51.93
15794;BME280;7999;51.208;4.244;2022-08-14T03:52:35;100933.22;;;19.84;51.75
15794;BME280;7999;51.208;4.244;2022-08-14T03:55:02;100931.19;;;19.91;51.85
15794;BME280;7999;51.208;4.244;2022-08-14T03:57:32;100927.13;;;19.82;52.20
15794;BME280;7999;51.208;4.244;2022-08-14T04:00:00;100925.16;;;19.64;52.72
15794;BME280;7999;51.208;4.244;2022-08-14T04:02:37;100923.59;;;19.58;53.06
15794;BME280;7999;51.208;4.244;2022-08-14T04:05:04;100917.25;;;19.64;52.78
15794;BME280;7999;51.208;4.244;2022-08-14T04:07:31;100920.09;;;19.58;53.05
15794;BME280;7999;51.208;4.244;2022-08-14T04:09:58;100908.59;;;19.60;52.80
15794;BME280;7999;51.208;4.244;2022-08-14T04:12:25;100910.41;;;19.58;53.10
15794;BME280;7999;51.208;4.244;2022-08-14T04:14:53;100907.84;;;19.57;53.25
15794;BME280;7999;51.208;4.244;2022-08-14T04:17:20;100902.75;;;19.51;53.39
15794;BME280;7999;51.208;4.244;2022-08-14T04:19:47;100902.69;;;19.54;53.25
15794;BME280;7999;51.208;4.244;2022-08-14T04:22:13;100898.72;;;19.65;52.86
15794;BME280;7999;51.208;4.244;2022-08-14T04:24:40;100903.53;;;19.54;53.26
15794;BME280;7999;51.208;4.244;2022-08-14T04:27:09;100897.50;;;19.51;53.31
15794;BME280;7999;51.208;4.244;2022-08-14T04:29:37;100884.91;;;19.59;53.08
15794;BME280;7999;51.208;4.244;2022-08-14T04:32:07;100887.38;;;19.63;53.24
15794;BME280;7999;51.208;4.244;2022-08-14T04:34:34;100882.66;;;19.48;53.55
15794;BME280;7999;51.208;4.244;2022-08-14T04:37:04;100888.72;;;19.50;53.88
15794;BME280;7999;51.208;4.244;2022-08-14T04:39:55;100887.44;;;19.62;53.02
15794;BME280;7999;51.208;4.244;2022-08-14T04:42:39;100881.53;;;19.55;53.30
15794;BME280;7999;51.208;4.244;2022-08-14T04:45:25;100877.31;;;19.50;53.64
15794;BME280;7999;51.208;4.244;2022-08-14T04:47:58;100878.13;;;19.52;53.57
15794;BME280;7999;51.208;4.244;2022-08-14T04:50:40;100868.34;;;19.55;53.53
15794;BME280;7999;51.208;4.244;2022-08-14T04:53:07;100870.25;;;19.50;53.67
15794;BME280;7999;51.208;4.244;2022-08-14T04:55:35;100870.88;;;19.58;53.49
15794;BME280;7999;51.208;4.244;2022-08-14T04:58:02;100873.44;;;19.60;53.45
15794;BME280;7999;51.208;4.244;2022-08-14T05:00:30;100874.13;;;19.65;53.58
15794;BME280;7999;51.208;4.244;2022-08-14T05:02:58;100876.22;;;19.80;53.15
15794;BME280;7999;51.208;4.244;2022-08-14T05:05:27;100875.22;;;19.83;52.87
15794;BME280;7999;51.208;4.244;2022-08-14T05:07:54;100889.63;;;19.74;52.78
15794;BME280;7999;51.208;4.244;2022-08-14T05:10:21;100885.34;;;19.70;53.14
15794;BME280;7999;51.208;4.244;2022-08-14T05:12:50;100879.75;;;19.79;53.20
15794;BME280;7999;51.208;4.244;2022-08-14T05:15:18;100885.03;;;19.79;53.00
15794;BME280;7999;51.208;4.244;2022-08-14T05:17:46;100886.81;;;19.79;53.03
15794;BME280;7999;51.208;4.244;2022-08-14T05:20:15;100885.72;;;19.84;52.91
15794;BME280;7999;51.208;4.244;2022-08-14T05:22:42;100887.69;;;19.79;52.54
15794;BME280;7999;51.208;4.244;2022-08-14T05:25:09;100891.66;;;19.66;53.50
15794;BME280;7999;51.208;4.244;2022-08-14T05:27:37;100885.84;;;19.81;53.08
15794;BME280;7999;51.208;4.244;2022-08-14T05:30:07;100881.13;;;19.89;52.98
15794;BME280;7999;51.208;4.244;2022-08-14T05:32:33;100883.19;;;19.81;53.21
15794;BME280;7999;51.208;4.244;2022-08-14T05:35:00;100887.69;;;19.79;53.27
15794;BME280;7999;51.208;4.244;2022-08-14T05:37:28;100875.03;;;19.87;52.88
15794;BME280;7999;51.208;4.244;2022-08-14T05:39:56;100882.44;;;20.23;52.01
15794;BME280;7999;51.208;4.244;2022-08-14T05:42:23;100879.00;;;20.44;51.14
15794;BME280;7999;51.208;4.244;2022-08-14T05:44:50;100874.44;;;20.90;50.15
15794;BME280;7999;51.208;4.244;2022-08-14T05:47:17;100878.41;;;21.20;49.74
15794;BME280;7999;51.208;4.244;2022-08-14T05:49:44;100885.16;;;22.06;47.54
15794;BME280;7999;51.208;4.244;2022-08-14T05:52:12;100882.66;;;22.58;46.30
15794;BME280;7999;51.208;4.244;2022-08-14T05:54:40;100877.38;;;22.39;46.42
15794;BME280;7999;51.208;4.244;2022-08-14T05:57:07;100887.50;;;22.67;46.22
15794;BME280;7999;51.208;4.244;2022-08-14T05:59:34;100881.16;;;22.88;45.33
15794;BME280;7999;51.208;4.244;2022-08-14T06:02:00;100885.19;;;22.78;45.02
15794;BME280;7999;51.208;4.244;2022-08-14T06:04:27;100879.41;;;23.22;43.98
15794;BME280;7999;51.208;4.244;2022-08-14T06:06:54;100876.56;;;22.73;45.24
15794;BME280;7999;51.208;4.244;2022-08-14T06:09:21;100875.81;;;23.23;44.19
15794;BME280;7999;51.208;4.244;2022-08-14T06:11:49;100877.59;;;23.57;43.27
15794;BME280;7999;51.208;4.244;2022-08-14T06:14:16;100877.97;;;23.66;43.37
15794;BME280;7999;51.208;4.244;2022-08-14T06:16:43;100866.41;;;23.67;42.91
15794;BME280;7999;51.208;4.244;2022-08-14T06:19:11;100862.66;;;24.34;42.08
15794;BME280;7999;51.208;4.244;2022-08-14T06:21:38;100868.31;;;24.44;41.96
15794;BME280;7999;51.208;4.244;2022-08-14T06:24:05;100864.84;;;23.79;42.87
15794;BME280;7999;51.208;4.244;2022-08-14T06:26:32;100863.69;;;24.16;41.75
15794;BME280;7999;51.208;4.244;2022-08-14T06:29:01;100863.88;;;24.45;41.23
15794;BME280;7999;51.208;4.244;2022-08-14T06:31:27;100864.94;;;24.86;40.57
15794;BME280;7999;51.208;4.244;2022-08-14T06:33:54;100866.78;;;25.73;38.96
15794;BME280;7999;51.208;4.244;2022-08-14T06:36:21;100872.28;;;25.41;38.84
15794;BME280;7999;51.208;4.244;2022-08-14T06:38:49;100874.72;;;25.02;39.37
15794;BME280;7999;51.208;4.244;2022-08-14T06:41:16;100868.66;;;24.84;39.61
15794;BME280;7999;51.208;4.244;2022-08-14T06:43:44;100869.00;;;24.48;40.33
15794;BME280;7999;51.208;4.244;2022-08-14T06:46:12;100863.81;;;24.90;39.70
15794;BME280;7999;51.208;4.244;2022-08-14T06:48:39;100868.03;;;25.53;38.52
15794;BME280;7999;51.208;4.244;2022-08-14T06:51:05;100867.84;;;25.70;37.83
15794;BME280;7999;51.208;4.244;2022-08-14T06:53:33;100859.47;;;25.48;38.27
15794;BME280;7999;51.208;4.244;2022-08-14T06:55:59;100864.69;;;26.60;36.69
15794;BME280;7999;51.208;4.244;2022-08-14T06:58:26;100866.09;;;27.18;35.63
15794;BME280;7999;51.208;4.244;2022-08-14T07:00:54;100867.47;;;27.36;35.29
15794;BME280;7999;51.208;4.244;2022-08-14T07:03:40;100865.31;;;28.29;33.89
15794;BME280;7999;51.208;4.244;2022-08-14T07:06:24;100860.84;;;27.80;34.72
15794;BME280;7999;51.208;4.244;2022-08-14T07:08:51;100851.81;;;27.45;35.08
15794;BME280;7999;51.208;4.244;2022-08-14T07:11:17;100858.09;;;28.42;33.46
15794;BME280;7999;51.208;4.244;2022-08-14T07:13:44;100860.31;;;27.75;34.19
15794;BME280;7999;51.208;4.244;2022-08-14T07:16:11;100857.75;;;27.35;34.65
15794;BME280;7999;51.208;4.244;2022-08-14T07:18:39;100856.00;;;27.98;34.15
15794;BME280;7999;51.208;4.244;2022-08-14T07:21:07;100856.59;;;28.86;33.27
15794;BME280;7999;51.208;4.244;2022-08-14T07:23:36;100851.31;;;29.42;32.02
15794;BME280;7999;51.208;4.244;2022-08-14T07:26:03;100854.75;;;28.51;33.60
15794;BME280;7999;51.208;4.244;2022-08-14T07:28:31;100853.56;;;29.59;31.73
15794;BME280;7999;51.208;4.244;2022-08-14T07:30:59;100850.88;;;29.70;31.14
15794;BME280;7999;51.208;4.244;2022-08-14T07:33:27;100854.16;;;28.94;32.33
15794;BME280;7999;51.208;4.244;2022-08-14T07:35:56;100845.03;;;29.65;31.41
15794;BME280;7999;51.208;4.244;2022-08-14T07:38:23;100844.00;;;30.11;30.69
15794;BME280;7999;51.208;4.244;2022-08-14T07:40:52;100830.31;;;30.25;29.70
15794;BME280;7999;51.208;4.244;2022-08-14T07:43:18;100830.91;;;30.61;29.06
15794;BME280;7999;51.208;4.244;2022-08-14T07:45:46;100823.31;;;29.12;29.37
15794;BME280;7999;51.208;4.244;2022-08-14T07:48:13;100831.41;;;28.53;30.89
15794;BME280;7999;51.208;4.244;2022-08-14T07:50:40;100829.44;;;29.70;29.65
15794;BME280;7999;51.208;4.244;2022-08-14T07:53:08;100828.63;;;30.13;29.26
15794;BME280;7999;51.208;4.244;2022-08-14T07:55:34;100830.75;;;30.41;28.66
15794;BME280;7999;51.208;4.244;2022-08-14T07:58:02;100819.69;;;29.58;29.05
15794;BME280;7999;51.208;4.244;2022-08-14T08:00:29;100826.97;;;29.78;29.25
15794;BME280;7999;51.208;4.244;2022-08-14T08:02:56;100822.84;;;29.52;29.34
15794;BME280;7999;51.208;4.244;2022-08-14T08:05:24;100824.72;;;30.81;27.29
15794;BME280;7999;51.208;4.244;2022-08-14T08:07:52;100818.59;;;31.21;26.71
15794;BME280;7999;51.208;4.244;2022-08-14T08:10:20;100804.91;;;31.54;26.71
15794;BME280;7999;51.208;4.244;2022-08-14T08:12:58;100818.03;;;31.17;26.76
15794;BME280;7999;51.208;4.244;2022-08-14T08:15:26;100822.03;;;30.81;27.88
15794;BME280;7999;51.208;4.244;2022-08-14T08:17:54;100820.13;;;31.44;26.96
15794;BME280;7999;51.208;4.244;2022-08-14T08:20:22;100821.31;;;31.51;26.98
15794;BME280;7999;51.208;4.244;2022-08-14T08:22:51;100808.41;;;31.85;26.96
15794;BME280;7999;51.208;4.244;2022-08-14T08:25:21;100799.81;;;32.20;25.93
15794;BME280;7999;51.208;4.244;2022-08-14T08:27:56;100809.06;;;32.47;26.07
15794;BME280;7999;51.208;4.244;2022-08-14T08:30:24;100803.09;;;32.72;25.82
15794;BME280;7999;51.208;4.244;2022-08-14T08:32:51;100805.19;;;32.20;26.93
15794;BME280;7999;51.208;4.244;2022-08-14T08:35:18;100805.63;;;32.83;24.92
15794;BME280;7999;51.208;4.244;2022-08-14T08:37:45;100802.09;;;33.30;24.45
15794;BME280;7999;51.208;4.244;2022-08-14T08:40:21;100802.19;;;33.75;24.17
15794;BME280;7999;51.208;4.244;2022-08-14T08:42:49;100796.06;;;33.55;23.73
15794;BME280;7999;51.208;4.244;2022-08-14T08:45:16;100791.03;;;33.42;24.67
15794;BME280;7999;51.208;4.244;2022-08-14T08:47:43;100792.91;;;32.47;25.88
15794;BME280;7999;51.208;4.244;2022-08-14T08:50:17;100786.41;;;32.40;24.98
15794;BME280;7999;51.208;4.244;2022-08-14T08:52:49;100787.53;;;32.47;25.87
15794;BME280;7999;51.208;4.244;2022-08-14T08:55:15;100791.72;;;32.01;26.19
15794;BME280;7999;51.208;4.244;2022-08-14T08:57:53;100788.06;;;32.21;25.84
15794;BME280;7999;51.208;4.244;2022-08-14T09:00:20;100778.69;;;32.83;25.88
15794;BME280;7999;51.208;4.244;2022-08-14T09:02:54;100778.59;;;33.22;24.16
15794;BME280;7999;51.208;4.244;2022-08-14T09:05:22;100783.25;;;32.73;24.69
15794;BME280;7999;51.208;4.244;2022-08-14T09:07:48;100775.13;;;33.39;23.90
15794;BME280;7999;51.208;4.244;2022-08-14T09:10:15;100777.91;;;32.44;24.25
15794;BME280;7999;51.208;4.244;2022-08-14T09:12:43;100775.03;;;32.17;25.03
15794;BME280;7999;51.208;4.244;2022-08-14T09:15:13;100766.28;;;32.63;25.02
15794;BME280;7999;51.208;4.244;2022-08-14T09:17:40;100767.44;;;33.72;23.95
15794;BME280;7999;51.208;4.244;2022-08-14T09:20:07;100765.88;;;31.70;25.39
15794;BME280;7999;51.208;4.244;2022-08-14T09:22:35;100760.91;;;32.05;25.26
15794;BME280;7999;51.208;4.244;2022-08-14T09:25:03;100759.50;;;32.40;25.12
15794;BME280;7999;51.208;4.244;2022-08-14T09:27:33;100763.06;;;33.43;24.19
15794;BME280;7999;51.208;4.244;2022-08-14T09:30:00;100754.75;;;33.27;24.27
15794;BME280;7999;51.208;4.244;2022-08-14T09:32:28;100766.28;;;34.37;22.71
15794;BME280;7999;51.208;4.244;2022-08-14T09:35:01;100762.16;;;34.16;22.10
15794;BME280;7999;51.208;4.244;2022-08-14T09:37:33;100750.44;;;35.20;22.38
15794;BME280;7999;51.208;4.244;2022-08-14T09:40:03;100738.81;;;34.86;22.10
15794;BME280;7999;51.208;4.244;2022-08-14T09:42:34;100745.22;;;34.41;22.26
15794;BME280;7999;51.208;4.244;2022-08-14T09:45:11;100733.38;;;35.54;21.19
15794;BME280;7999;51.208;4.244;2022-08-14T09:47:41;100720.38;;;35.15;22.10
15794;BME280;7999;51.208;4.244;2022-08-14T09:50:14;100730.41;;;34.09;22.13
15794;BME280;7999;51.208;4.244;2022-08-14T09:52:45;100727.31;;;34.40;22.36
15794;BME280;7999;51.208;4.244;2022-08-14T09:55:15;100731.78;;;34.14;22.04
15794;BME280;7999;51.208;4.244;2022-08-14T09:57:42;100725.38;;;34.15;21.93
15794;BME280;7999;51.208;4.244;2022-08-14T10:00:09;100728.00;;;32.69;22.97
15794;BME280;7999;51.208;4.244;2022-08-14T10:02:38;100727.00;;;33.17;23.40
15794;BME280;7999;51.208;4.244;2022-08-14T10:05:07;100724.53;;;33.33;23.67
15794;BME280;7999;51.208;4.244;2022-08-14T10:07:35;100725.91;;;33.83;22.61
15794;BME280;7999;51.208;4.244;2022-08-14T10:10:02;100712.41;;;33.47;23.25
15794;BME280;7999;51.208;4.244;2022-08-14T10:12:42;100710.91;;;32.98;23.47
15794;BME280;7999;51.208;4.244;2022-08-14T10:15:13;100716.97;;;32.53;23.94
15794;BME280;7999;51.208;4.244;2022-08-14T10:17:41;100710.75;;;32.23;24.82
15794;BME280;7999;51.208;4.244;2022-08-14T10:20:09;100710.69;;;33.91;23.51
15794;BME280;7999;51.208;4.244;2022-08-14T10:22:38;100709.22;;;34.58;22.03
15794;BME280;7999;51.208;4.244;2022-08-14T10:25:09;100701.06;;;34.50;21.07
15794;BME280;7999;51.208;4.244;2022-08-14T10:27:36;100704.50;;;34.34;21.27
15794;BME280;7999;51.208;4.244;2022-08-14T10:30:03;100700.88;;;35.04;20.54
15794;BME280;7999;51.208;4.244;2022-08-14T10:32:41;100696.38;;;35.12;19.63
15794;BME280;7999;51.208;4.244;2022-08-14T10:35:10;100698.31;;;34.42;20.12
15794;BME280;7999;51.208;4.244;2022-08-14T10:37:37;100705.28;;;35.39;18.71
15794;BME280;7999;51.208;4.244;2022-08-14T10:40:04;100706.38;;;34.34;19.60
15794;BME280;7999;51.208;4.244;2022-08-14T10:42:35;100695.44;;;34.95;19.38
15794;BME280;7999;51.208;4.244;2022-08-14T10:45:02;100689.16;;;35.87;18.95
15794;BME280;7999;51.208;4.244;2022-08-14T10:47:33;100678.84;;;35.24;18.63
15794;BME280;7999;51.208;4.244;2022-08-14T10:50:00;100669.78;;;34.99;19.43
15794;BME280;7999;51.208;4.244;2022-08-14T10:52:29;100666.34;;;35.23;18.69
15794;BME280;7999;51.208;4.244;2022-08-14T10:55:04;100662.25;;;34.51;19.48
15794;BME280;7999;51.208;4.244;2022-08-14T10:57:32;100663.97;;;33.73;20.11
15794;BME280;7999;51.208;4.244;2022-08-14T11:00:01;100644.16;;;35.62;18.93
15794;BME280;7999;51.208;4.244;2022-08-14T11:02:39;100657.22;;;36.32;18.50
15794;BME280;7999;51.208;4.244;2022-08-14T11:05:08;100665.84;;;35.95;18.27
15794;BME280;7999;51.208;4.244;2022-08-14T11:07:39;100653.09;;;34.44;19.05
15794;BME280;7999;51.208;4.244;2022-08-14T11:10:07;100631.69;;;34.77;19.22
15794;BME280;7999;51.208;4.244;2022-08-14T11:12:38;100637.94;;;35.19;18.53
15794;BME280;7999;51.208;4.244;2022-08-14T11:15:07;100644.44;;;34.84;18.78
15794;BME280;7999;51.208;4.244;2022-08-14T11:17:34;100636.75;;;35.97;18.66
15794;BME280;7999;51.208;4.244;2022-08-14T11:20:02;100631.63;;;35.37;18.66
15794;BME280;7999;51.208;4.244;2022-08-14T11:22:30;100626.91;;;36.28;18.28
15794;BME280;7999;51.208;4.244;2022-08-14T11:25:00;100624.09;;;36.77;17.29
15794;BME280;7999;51.208;4.244;2022-08-14T11:27:27;100621.88;;;36.01;17.67
15794;BME280;7999;51.208;4.244;2022-08-14T11:29:55;100617.66;;;35.07;18.28
15794;BME280;7999;51.208;4.244;2022-08-14T11:32:26;100616.34;;;35.19;18.63
15794;BME280;7999;51.208;4.244;2022-08-14T11:34:53;100624.09;;;34.46;19.34
15794;BME280;7999;51.208;4.244;2022-08-14T11:37:21;100620.31;;;35.74;17.74
15794;BME280;7999;51.208;4.244;2022-08-14T11:39:47;100611.34;;;35.49;18.50
15794;BME280;7999;51.208;4.244;2022-08-14T11:42:22;100610.00;;;34.08;19.51
15794;BME280;7999;51.208;4.244;2022-08-14T11:44:49;100613.94;;;33.96;20.06
15794;BME280;7999;51.208;4.244;2022-08-14T11:47:17;100608.06;;;34.79;19.32
15794;BME280;7999;51.208;4.244;2022-08-14T11:49:45;100597.94;;;35.31;18.49
15794;BME280;7999;51.208;4.244;2022-08-14T11:52:12;100601.19;;;36.24;18.02
15794;BME280;7999;51.208;4.244;2022-08-14T11:54:39;100600.72;;;34.29;19.31
15794;BME280;7999;51.208;4.244;2022-08-14T11:57:12;100599.34;;;34.25;20.23
15794;BME280;7999;51.208;4.244;2022-08-14T11:59:40;100596.06;;;34.39;19.91
15794;BME280;7999;51.208;4.244;2022-08-14T12:02:07;100596.69;;;34.33;19.90
15794;BME280;7999;51.208;4.244;2022-08-14T12:04:34;100598.63;;;34.83;20.40
15794;BME280;7999;51.208;4.244;2022-08-14T12:07:01;100594.38;;;35.30;19.27
15794;BME280;7999;51.208;4.244;2022-08-14T12:09:32;100597.16;;;35.39;18.60
15794;BME280;7999;51.208;4.244;2022-08-14T12:12:00;100593.94;;;34.25;19.77
15794;BME280;7999;51.208;4.244;2022-08-14T12:14:27;100576.53;;;35.54;19.85
15794;BME280;7999;51.208;4.244;2022-08-14T12:16:59;100589.97;;;35.13;19.08
15794;BME280;7999;51.208;4.244;2022-08-14T12:19:26;100589.06;;;34.02;19.75
15794;BME280;7999;51.208;4.244;2022-08-14T12:21:53;100583.38;;;34.74;19.19
15794;BME280;7999;51.208;4.244;2022-08-14T12:24:25;100585.25;;;35.07;19.11
15794;BME280;7999;51.208;4.244;2022-08-14T12:26:53;100576.97;;;34.66;18.84
15794;BME280;7999;51.208;4.244;2022-08-14T12:29:19;100574.50;;;34.81;18.61
15794;BME280;7999;51.208;4.244;2022-08-14T12:31:46;100588.22;;;34.02;19.76
15794;BME280;7999;51.208;4.244;2022-08-14T12:34:28;100569.00;;;34.57;19.06
15794;BME280;7999;51.208;4.244;2022-08-14T12:37:00;100580.75;;;34.82;19.16
15794;BME280;7999;51.208;4.244;2022-08-14T12:39:28;100580.44;;;33.81;19.79
15794;BME280;7999;51.208;4.244;2022-08-14T12:41:55;100573.19;;;33.82;19.79
15794;BME280;7999;51.208;4.244;2022-08-14T12:44:29;100571.34;;;34.26;19.46
15794;BME280;7999;51.208;4.244;2022-08-14T12:47:01;100562.75;;;33.61;20.21
15794;BME280;7999;51.208;4.244;2022-08-14T12:49:31;100567.38;;;33.86;20.01
15794;BME280;7999;51.208;4.244;2022-08-14T12:52:00;100570.91;;;33.69;20.27
15794;BME280;7999;51.208;4.244;2022-08-14T12:54:28;100572.63;;;33.34;19.97
15794;BME280;7999;51.208;4.244;2022-08-14T12:57:05;100566.06;;;33.72;19.79
15794;BME280;7999;51.208;4.244;2022-08-14T12:59:32;100571.72;;;33.43;20.49
15794;BME280;7999;51.208;4.244;2022-08-14T13:01:59;100569.06;;;32.61;21.25
15794;BME280;7999;51.208;4.244;2022-08-14T13:04:27;100561.97;;;33.86;20.58
15794;BME280;7999;51.208;4.244;2022-08-14T13:06:59;100561.69;;;33.54;20.92